Time;durP1;ratioP1;P1;durP2;ratioP2;P2;SDS_P1;SDS_P2;PMS_P1;PMS_P2;Temp;Humidity;BMP_temperature;BMP_pressure;BME280_temperature;BME280_humidity;BME280_pressure;Samples;Min_cycle;Max_cycle;Signal;HPM_P1;HPM_P2
2022/12/23 00:00:41;;;;;;;9.13;6.20;;;10.00;99.90;;;;;;4858162;29;20121;-72
2022/12/23 00:03:07;;;;;;;10.48;7.03;;;9.70;99.90;;;;;;4848690;29;20048;-74
2022/12/23 00:05:39;;;;;;;12.27;7.57;;;9.70;99.90;;;;;;4839143;29;20498;-73
2022/12/23 00:08:06;;;;;;;12.82;8.63;;;9.90;99.90;;;;;;4839153;29;20045;-73
2022/12/23 00:10:33;;;;;;;15.88;10.35;;;9.70;99.90;;;;;;4839531;29;20050;-73
2022/12/23 00:15:42;;;;;;;14.35;9.77;;;9.80;99.90;;;;;;4855415;29;20493;-73
2022/12/23 00:18:08;;;;;;;15.68;10.50;;;9.80;99.90;;;;;;4857632;29;20058;-73
2022/12/23 00:20:33;;;;;;;14.18;9.20;;;10.10;99.90;;;;;;4857511;29;20049;-73
2022/12/23 00:23:05;;;;;;;13.90;8.32;;;10.10;99.90;;;;;;4842005;29;20121;-73
2022/12/23 00:25:41;;;;;;;13.05;8.38;;;10.10;99.90;;;;;;4858179;29;20405;-73
2022/12/23 00:28:15;;;;;;;10.38;6.93;;;9.90;99.90;;;;;;4860535;29;20049;-73
2022/12/23 00:30:46;;;;;;;8.77;5.65;;;10.20;99.90;;;;;;4860336;29;20060;-73
2022/12/23 00:33:16;;;;;;;7.60;5.03;;;10.00;99.90;;;;;;4858557;29;20420;-73
2022/12/23 00:35:46;;;;;;;8.43;5.72;;;10.00;99.90;;;;;;4860034;29;20205;-73
2022/12/23 00:38:12;;;;;;;10.48;6.97;;;10.20;99.90;;;;;;4860818;29;20065;-73
2022/12/23 00:43:22;;;;;;;11.82;7.25;;;10.00;99.90;;;;;;4859179;29;19976;-73
2022/12/23 00:45:47;;;;;;;10.60;5.90;;;10.00;99.90;;;;;;4830278;29;20057;-73
2022/12/23 00:50:58;;;;;;;6.40;4.40;;;10.00;99.90;;;;;;4861342;29;20068;-73
2022/12/23 00:53:24;;;;;;;10.13;6.30;;;10.10;99.90;;;;;;4860506;29;20046;-73
2022/12/23 00:55:50;;;;;;;10.73;6.85;;;10.50;99.90;;;;;;4845509;29;20097;-73
2022/12/23 00:58:16;;;;;;;;;;;10.10;99.90;;;;;;4861599;29;20106;-73
2022/12/23 01:06:12;;;;;;;11.35;7.05;;;10.50;99.90;;;;;;4860490;29;20512;-73
2022/12/23 01:08:38;;;;;;;9.45;6.18;;;10.20;99.90;;;;;;4860367;29;20053;-73
2022/12/23 01:11:07;;;;;;;12.23;7.80;;;10.40;99.90;;;;;;4845162;29;20050;-73
2022/12/23 01:13:33;;;;;;;11.85;7.90;;;10.40;99.90;;;;;;4860549;29;20045;-73
2022/12/23 01:16:03;;;;;;;;;;;10.50;99.90;;;;;;4860945;29;20077;-73
2022/12/23 01:18:28;;;;;;;13.65;8.45;;;10.30;99.90;;;;;;4862059;29;19934;-72
2022/12/23 01:20:54;;;;;;;12.27;7.95;;;10.50;99.90;;;;;;4858440;29;20442;-72
2022/12/23 01:23:20;;;;;;;13.90;8.63;;;10.30;99.90;;;;;;4843523;29;20045;-73
2022/12/23 01:25:47;;;;;;;10.77;6.95;;;10.30;99.90;;;;;;4859254;29;20049;-72
2022/12/23 01:28:12;;;;;;;8.85;5.90;;;10.50;99.90;;;;;;4847425;29;20468;-73
2022/12/23 01:30:38;;;;;;;8.07;5.10;;;10.30;99.90;;;;;;4849178;29;20053;-73
2022/12/23 01:33:04;;;;;;;6.53;4.30;;;10.70;99.90;;;;;;4846423;29;20052;-73
2022/12/23 01:35:30;;;;;;;7.13;4.28;;;10.60;99.90;;;;;;4861567;29;20100;-73
2022/12/23 01:37:55;;;;;;;5.90;4.13;;;10.70;99.90;;;;;;4849208;29;20068;-73
2022/12/23 01:40:21;;;;;;;8.18;5.28;;;10.50;99.90;;;;;;4824206;29;20048;-73
2022/12/23 01:42:47;;;;;;;6.45;4.43;;;10.60;99.90;;;;;;4860488;29;20153;-73
2022/12/23 01:45:17;;;;;;;9.60;6.50;;;10.70;99.90;;;;;;4858497;29;20061;-73
2022/12/23 01:47:52;;;;;;;8.88;6.00;;;10.60;99.90;;;;;;4858435;29;20045;-73
2022/12/23 01:50:29;;;;;;;11.00;7.25;;;10.30;99.90;;;;;;4858281;29;20061;-73
2022/12/23 01:53:13;;;;;;;12.65;7.88;;;10.30;99.90;;;;;;4860108;29;20049;-73
2022/12/23 01:55:50;;;;;;;17.88;11.13;;;10.30;99.90;;;;;;4860678;29;20056;-73
2022/12/23 01:58:25;;;;;;;28.42;15.73;;;10.30;99.90;;;;;;4874999;29;20124;-73
2022/12/23 02:03:42;;;;;;;18.23;11.27;;;10.50;99.90;;;;;;4858452;29;20054;-73
2022/12/23 02:09:37;;;;;;;13.80;8.63;;;10.30;99.90;;;;;;4861612;29;20564;-73
2022/12/23 02:12:31;;;;;;;14.32;8.93;;;10.40;99.90;;;;;;4859452;29;20191;-72
2022/12/23 02:18:39;;;;;;;15.05;9.15;;;10.60;99.90;;;;;;4841092;29;20056;-74
2022/12/23 02:21:29;;;;;;;13.63;8.57;;;10.40;99.90;;;;;;4849623;29;20117;-74
2022/12/23 02:24:00;;;;;;;12.70;8.05;;;10.90;99.90;;;;;;4860567;29;20068;-74
2022/12/23 02:26:48;;;;;;;15.40;9.00;;;10.50;99.90;;;;;;4858822;29;20049;-74
2022/12/23 02:29:32;;;;;;;17.77;10.05;;;11.00;99.90;;;;;;4857430;29;20501;-74
2022/12/23 02:32:46;;;;;;;16.63;9.70;;;10.70;99.90;;;;;;4830091;29;20414;-74
2022/12/23 02:35:17;;;;;;;15.40;8.95;;;10.60;99.90;;;;;;4844865;29;20064;-74
2022/12/23 02:37:57;;;;;;;16.25;9.48;;;11.10;99.90;;;;;;4858233;29;20042;-74
2022/12/23 02:41:01;;;;;;;12.63;7.78;;;10.80;99.90;;;;;;4838147;29;20041;-74
2022/12/23 02:43:42;;;;;;;11.70;7.38;;;10.70;99.90;;;;;;4872036;29;20100;-72
2022/12/23 02:46:18;;;;;;;13.90;8.27;;;10.70;99.90;;;;;;4857568;29;20124;-73
2022/12/23 02:49:11;;;;;;;14.30;9.15;;;11.00;99.90;;;;;;4856690;29;20053;-73
2022/12/23 02:51:41;;;;;;;11.57;7.18;;;11.20;99.90;;;;;;4825111;29;20045;-74
2022/12/23 02:54:11;;;;;;;12.10;7.38;;;10.80;99.90;;;;;;4856501;29;20129;-73
2022/12/23 02:56:39;;;;;;;11.18;6.43;;;10.70;99.90;;;;;;4857854;29;20041;-74
2022/12/23 02:59:19;;;;;;;9.27;5.32;;;11.00;99.90;;;;;;4857879;29;20049;-74
2022/12/23 03:01:46;;;;;;;11.55;6.97;;;10.80;99.90;;;;;;4842730;29;20053;-74
2022/12/23 03:04:12;;;;;;;10.80;6.45;;;11.30;99.90;;;;;;4858490;29;20057;-74
2022/12/23 03:06:40;;;;;;;13.65;7.88;;;10.70;99.90;;;;;;4857918;29;20057;-73
2022/12/23 03:09:07;;;;;;;9.63;6.53;;;10.90;99.90;;;;;;4852752;29;20093;-74
2022/12/23 03:12:03;;;;;;;10.57;6.40;;;11.40;99.90;;;;;;4850655;29;20502;-74
2022/12/23 03:14:44;;;;;;;14.55;8.57;;;10.80;99.90;;;;;;4843495;29;20425;-74
2022/12/23 03:17:25;;;;;;;18.25;9.88;;;10.80;99.90;;;;;;4856060;29;20435;-74
2022/12/23 03:19:59;;;;;;;16.17;9.45;;;11.10;99.90;;;;;;4858357;29;20092;-74
2022/12/23 03:22:33;;;;;;;19.17;10.90;;;11.30;99.90;;;;;;4857051;29;20060;-74
2022/12/23 03:25:08;;;;;;;20.10;11.20;;;11.40;99.90;;;;;;4857802;29;20057;-70
2022/12/23 03:27:53;;;;;;;17.65;10.18;;;11.00;99.90;;;;;;4857711;29;20049;-71
2022/12/23 03:30:21;;;;;;;13.80;8.10;;;11.30;99.90;;;;;;4854649;29;20048;-71
2022/12/23 03:32:52;;;;;;;13.73;8.10;;;11.20;99.90;;;;;;4842143;29;20081;-71
2022/12/23 03:35:23;;;;;;;12.00;7.20;;;11.00;99.90;;;;;;4840839;29;20136;-69
2022/12/23 03:37:53;;;;;;;9.75;5.80;;;11.60;99.90;;;;;;4857900;29;20053;-69
2022/12/23 03:40:26;;;;;;;7.57;4.82;;;11.50;99.90;;;;;;4856175;29;20098;-69
2022/12/23 03:42:59;;;;;;;8.52;5.18;;;11.60;99.90;;;;;;4855586;29;20057;-70
2022/12/23 03:45:34;;;;;;;7.95;4.50;;;11.50;99.90;;;;;;4856856;29;20077;-69
2022/12/23 03:48:05;;;;;;;7.10;4.30;;;10.90;99.90;;;;;;4855407;29;20124;-70
2022/12/23 03:50:33;;;;;;;6.65;4.25;;;11.60;99.90;;;;;;4856780;29;20111;-69
2022/12/23 03:53:14;;;;;;;6.75;4.40;;;11.00;99.90;;;;;;4841863;29;20057;-70
2022/12/23 03:55:44;;;;;;;8.85;5.25;;;11.60;99.90;;;;;;4854346;29;20519;-69
2022/12/23 03:58:18;;;;;;;8.38;4.93;;;10.90;99.90;;;;;;4857508;29;20125;-69
2022/12/23 04:00:56;;;;;;;7.00;4.18;;;10.90;99.90;;;;;;4855469;29;20049;-69
2022/12/23 04:03:37;;;;;;;8.32;5.05;;;11.50;99.90;;;;;;4855023;29;20084;-69
2022/12/23 04:06:08;;;;;;;10.27;6.22;;;11.50;99.90;;;;;;4855655;29;20052;-71
2022/12/23 04:08:37;;;;;;;10.70;5.78;;;11.00;99.90;;;;;;4841939;29;20045;-71
2022/12/23 04:11:03;;;;;;;8.52;4.75;;;11.50;99.90;;;;;;4856443;29;20064;-72
2022/12/23 04:13:29;;;;;;;8.85;4.72;;;11.00;99.90;;;;;;4857511;29;20041;-72
2022/12/23 04:15:59;;;;;;;;;;;10.90;99.90;;;;;;4856625;29;20056;-73
2022/12/23 04:18:25;;;;;;;6.43;4.00;;;11.60;99.90;;;;;;4840168;29;19960;-72
2022/12/23 04:20:50;;;;;;;6.60;3.80;;;11.10;99.90;;;;;;4853485;29;20852;-71
2022/12/23 04:23:16;;;;;;;6.22;3.92;;;11.50;99.90;;;;;;4857366;29;20185;-71
2022/12/23 04:25:41;;;;;;;6.03;3.78;;;10.90;99.90;;;;;;4855450;29;20059;-71
2022/12/23 04:28:07;;;;;;;7.20;4.38;;;11.00;99.90;;;;;;4858476;29;20045;-71
2022/12/23 04:30:33;;;;;;;7.38;4.30;;;11.20;99.90;;;;;;4840907;29;20511;-71
2022/12/23 04:32:59;;;;;;;6.75;4.15;;;11.50;99.90;;;;;;4857041;29;20132;-71
2022/12/23 04:35:24;;;;;;;7.82;4.50;;;11.00;99.90;;;;;;4854765;29;20058;-71
2022/12/23 04:37:50;;;;;;;8.57;4.88;;;10.90;99.90;;;;;;4856810;29;20128;-72
2022/12/23 04:40:16;;;;;;;7.85;4.72;;;11.30;99.90;;;;;;4855635;29;20038;-72
2022/12/23 04:42:41;;;;;;;7.28;4.50;;;11.60;99.90;;;;;;4856241;29;20057;-72
2022/12/23 04:45:08;;;;;;;6.22;3.83;;;11.60;99.90;;;;;;4857338;29;20060;-72
2022/12/23 04:47:34;;;;;;;6.88;4.03;;;11.60;99.90;;;;;;4837366;29;20042;-72
2022/12/23 04:50:00;;;;;;;6.43;3.83;;;10.90;99.90;;;;;;4856144;29;20105;-72
2022/12/23 04:52:26;;;;;;;6.15;3.55;;;11.50;99.90;;;;;;4857065;29;20057;-73
2022/12/23 04:54:51;;;;;;;6.15;3.42;;;10.90;99.90;;;;;;4857287;29;20041;-72
2022/12/23 04:57:17;;;;;;;6.30;3.67;;;11.40;99.90;;;;;;4857179;29;20531;-72
2022/12/23 04:59:43;;;;;;;5.82;3.38;;;11.00;99.90;;;;;;4855467;29;20128;-72
2022/12/23 05:02:09;;;;;;;6.38;3.53;;;11.60;99.90;;;;;;4836238;29;20494;-72
2022/12/23 05:04:34;;;;;;;7.38;4.13;;;11.50;99.90;;;;;;4855408;29;20414;-73
2022/12/23 05:07:00;;;;;;;9.20;5.25;;;11.40;99.90;;;;;;4841599;29;20057;-72
2022/12/23 05:09:26;;;;;;;10.23;6.03;;;11.20;99.90;;;;;;4854364;29;20041;-72
2022/12/23 05:11:51;;;;;;;9.00;5.13;;;11.60;99.90;;;;;;4826454;29;20054;-72
2022/12/23 05:14:17;;;;;;;13.65;7.80;;;11.30;99.90;;;;;;4858921;29;20190;-72
2022/12/23 05:16:43;;;;;;;10.65;5.70;;;11.20;99.90;;;;;;4844787;29;20042;-73
2022/12/23 05:19:09;;;;;;;12.63;7.20;;;11.30;99.90;;;;;;4844810;29;20049;-72
2022/12/23 05:21:35;;;;;;;10.63;6.00;;;11.50;99.90;;;;;;4860205;29;20049;-72
2022/12/23 05:24:00;;;;;;;10.05;5.90;;;11.30;99.90;;;;;;4843234;29;20057;-72
2022/12/23 05:26:26;;;;;;;10.40;6.05;;;11.30;99.90;;;;;;4845884;29;20049;-73
2022/12/23 05:28:52;;;;;;;11.63;6.22;;;11.40;99.90;;;;;;4846186;29;20110;-75
2022/12/23 05:31:18;;;;;;;11.80;6.15;;;11.60;99.90;;;;;;4835364;29;20401;-73
2022/12/23 05:33:43;;;;;;;11.63;6.25;;;11.70;99.90;;;;;;4859154;29;20110;-74
2022/12/23 05:36:10;;;;;;;9.90;5.90;;;11.70;99.90;;;;;;4845608;29;20057;-73
2022/12/23 05:38:36;;;;;;;8.60;4.93;;;11.30;99.90;;;;;;4859703;29;20043;-74
2022/12/23 05:41:02;;;;;;;7.90;4.35;;;11.00;99.90;;;;;;4859211;29;20157;-74
2022/12/23 05:43:28;;;;;;;7.55;4.50;;;11.60;99.90;;;;;;4843017;29;20101;-74
2022/12/23 05:45:54;;;;;;;7.70;4.55;;;11.10;99.90;;;;;;4826548;29;20054;-74
2022/12/23 05:48:20;;;;;;;7.47;4.15;;;10.90;99.90;;;;;;4842250;29;20563;-74
2022/12/23 05:50:51;;;;;;;8.57;4.90;;;11.00;99.90;;;;;;4847127;29;20049;-74
2022/12/23 05:53:18;;;;;;;13.32;6.80;;;11.10;99.90;;;;;;4859957;29;20164;-74
2022/12/23 05:55:43;;;;;;;;;;;11.50;99.90;;;;;;4860066;29;20490;-74
2022/12/23 05:58:09;;;;;;;12.38;6.95;;;11.40;99.90;;;;;;4858632;29;19920;-75
2022/12/23 06:00:35;;;;;;;12.80;6.63;;;11.10;99.90;;;;;;4859488;29;20383;-75
2022/12/23 06:03:01;;;;;;;13.48;7.43;;;11.40;99.90;;;;;;4860630;29;20049;-74
2022/12/23 06:05:26;;;;;;;12.38;6.60;;;11.60;99.90;;;;;;4858871;29;20053;-74
2022/12/23 06:07:52;;;;;;;12.52;7.20;;;11.50;99.90;;;;;;4843682;29;20494;-74
2022/12/23 06:10:18;;;;;;;10.30;5.75;;;11.20;99.90;;;;;;4857818;29;20053;-75
2022/12/23 06:12:43;;;;;;;7.75;4.70;;;11.20;99.90;;;;;;4845156;29;20048;-74
2022/12/23 06:15:09;;;;;;;7.20;4.18;;;11.10;99.90;;;;;;4843726;29;20037;-74
2022/12/23 06:17:35;;;;;;;6.88;4.10;;;11.20;99.90;;;;;;4857251;29;20040;-73
2022/12/23 06:20:01;;;;;;;5.53;3.05;;;11.40;99.90;;;;;;4860174;29;20042;-73
2022/12/23 06:22:27;;;;;;;5.55;3.50;;;11.50;99.90;;;;;;4828322;29;20041;-73
2022/12/23 06:24:52;;;;;;;5.00;3.22;;;11.60;99.90;;;;;;4837780;29;20045;-73
2022/12/23 06:27:18;;;;;;;4.53;2.72;;;11.40;99.90;;;;;;4857123;29;20478;-68
2022/12/23 06:29:44;;;;;;;5.72;3.17;;;10.80;99.90;;;;;;4857495;29;20402;-69
2022/12/23 06:32:10;;;;;;;5.05;3.00;;;10.60;99.90;;;;;;4856204;29;20042;-69
2022/12/23 06:34:35;;;;;;;4.80;3.00;;;11.10;99.90;;;;;;4857555;29;20045;-70
2022/12/23 06:37:01;;;;;;;5.35;2.97;;;11.30;99.90;;;;;;4855922;29;20053;-70
2022/12/23 06:39:27;;;;;;;7.38;4.20;;;10.80;99.90;;;;;;4857536;29;20045;-70
2022/12/23 06:41:52;;;;;;;7.13;3.97;;;10.80;99.90;;;;;;4835262;29;20053;-71
2022/12/23 06:44:19;;;;;;;6.28;3.67;;;11.50;99.90;;;;;;4858036;29;20088;-71
2022/12/23 06:46:44;;;;;;;;;;;10.80;99.90;;;;;;4839384;29;20065;-70
2022/12/23 06:49:10;;;;;;;7.38;4.28;;;11.40;99.90;;;;;;4854277;29;19924;-71
2022/12/23 06:51:36;;;;;;;7.45;4.13;;;11.20;99.90;;;;;;4852632;29;20045;-71
2022/12/23 06:54:01;;;;;;;8.00;4.25;;;11.10;99.90;;;;;;4844116;29;20042;-71
2022/12/23 06:56:27;;;;;;;6.07;3.40;;;11.30;99.90;;;;;;4852992;29;20601;-71
2022/12/23 06:58:53;;;;;;;6.45;3.33;;;11.30;99.90;;;;;;4858024;29;20049;-71
2022/12/23 07:01:19;;;;;;;6.07;3.50;;;11.80;99.90;;;;;;4838889;29;20045;-71
2022/12/23 07:03:45;;;;;;;7.80;4.18;;;11.50;99.90;;;;;;4834166;29;20220;-71
2022/12/23 07:06:11;;;;;;;9.13;4.82;;;11.30;99.90;;;;;;4854269;29;20464;-72
2022/12/23 07:08:37;;;;;;;8.20;4.60;;;11.00;99.90;;;;;;4836844;29;20045;-72
2022/12/23 07:11:03;;;;;;;7.10;4.25;;;11.10;99.90;;;;;;4838885;29;20056;-72
2022/12/23 07:13:31;;;;;;;6.85;3.60;;;12.00;99.90;;;;;;4857298;29;20070;-75
2022/12/23 07:15:56;;;;;;;8.18;4.43;;;11.00;99.90;;;;;;4855089;29;20045;-75
2022/12/23 07:18:23;;;;;;;7.72;4.32;;;12.10;99.90;;;;;;4864384;29;20587;-75
2022/12/23 07:20:50;;;;;;;7.25;3.83;;;11.40;99.90;;;;;;4859148;29;20409;-74
2022/12/23 07:23:15;;;;;;;;;;;11.00;99.90;;;;;;4843231;29;20038;-75
2022/12/23 07:25:41;;;;;;;12.00;5.97;;;11.60;99.90;;;;;;4858398;29;20395;-75
2022/12/23 07:28:07;;;;;;;11.20;6.13;;;11.20;99.90;;;;;;4858310;29;20049;-75
2022/12/23 07:30:33;;;;;;;12.73;6.00;;;12.20;99.90;;;;;;4860067;29;20054;-75
2022/12/23 07:32:59;;;;;;;10.77;5.93;;;11.10;99.90;;;;;;4857821;29;20530;-75
2022/12/23 07:35:24;;;;;;;11.18;6.03;;;12.20;99.90;;;;;;4842449;29;20053;-76
2022/12/23 07:37:54;;;;;;;9.55;5.22;;;11.30;99.90;;;;;;4857698;29;20077;-76
2022/12/23 07:40:22;;;;;;;7.40;4.25;;;12.30;99.90;;;;;;4858447;29;20057;-76
2022/12/23 07:42:49;;;;;;;7.72;4.13;;;11.50;99.90;;;;;;4858107;29;20057;-74
2022/12/23 07:45:15;;;;;;;9.20;4.95;;;11.20;99.90;;;;;;4870748;29;20124;-74
2022/12/23 07:47:41;;;;;;;9.93;5.55;;;11.50;99.90;;;;;;4839655;29;20042;-75
2022/12/23 07:50:07;;;;;;;7.88;4.18;;;12.20;99.90;;;;;;4839749;29;20042;-75
2022/12/23 07:52:33;;;;;;;7.22;3.63;;;11.60;99.90;;;;;;4836245;29;20140;-77
2022/12/23 07:54:59;;;;;;;6.20;3.28;;;12.30;99.90;;;;;;4841154;29;20124;-74
2022/12/23 07:57:24;;;;;;;5.68;3.25;;;11.30;99.90;;;;;;4856263;29;20042;-72
2022/12/23 07:59:50;;;;;;;5.03;3.10;;;12.30;99.90;;;;;;4852680;29;20085;-74
2022/12/23 08:02:16;;;;;;;5.28;3.15;;;11.20;99.90;;;;;;4858170;29;20045;-73
2022/12/23 08:04:41;;;;;;;6.10;3.30;;;11.20;99.90;;;;;;4857747;29;20089;-74
2022/12/23 08:07:07;;;;;;;4.72;2.80;;;11.40;99.90;;;;;;4857864;29;20138;-74
2022/12/23 08:09:33;;;;;;;5.22;2.58;;;11.20;99.90;;;;;;4857589;29;20100;-74
2022/12/23 08:11:58;;;;;;;4.13;2.38;;;11.30;99.90;;;;;;4841065;29;20502;-74
2022/12/23 08:14:24;;;;;;;5.68;3.30;;;11.90;99.90;;;;;;4842645;29;20050;-74
2022/12/23 08:16:50;;;;;;;8.02;4.10;;;12.40;99.90;;;;;;4857333;29;20513;-75
2022/12/23 08:19:16;;;;;;;5.43;3.10;;;11.30;99.90;;;;;;4841972;29;20046;-74
2022/12/23 08:21:41;;;;;;;7.03;3.55;;;12.20;99.90;;;;;;4857606;29;20081;-74
2022/12/23 08:24:07;;;;;;;7.50;4.10;;;11.50;99.90;;;;;;4857110;29;20053;-74
2022/12/23 08:26:33;;;;;;;7.38;3.88;;;11.90;99.90;;;;;;4857828;29;20057;-74
2022/12/23 08:28:59;;;;;;;5.90;3.25;;;12.50;99.90;;;;;;4857208;29;20461;-74
2022/12/23 08:31:28;;;;;;;6.43;3.15;;;11.40;99.90;;;;;;4858951;29;20328;-74
2022/12/23 08:33:56;;;;;;;4.20;2.50;;;11.40;99.90;;;;;;4858900;29;20343;-74
2022/12/23 08:36:25;;;;;;;4.03;2.22;;;11.60;99.90;;;;;;4857271;29;20423;-74
2022/12/23 08:38:53;;;;;;;6.10;3.28;;;12.30;99.90;;;;;;4858469;29;20114;-73
2022/12/23 08:41:25;;;;;;;5.07;2.80;;;12.10;99.90;;;;;;4857595;29;20091;-74
2022/12/23 08:43:51;;;;;;;4.47;2.65;;;11.80;99.90;;;;;;4857281;29;20571;-73
2022/12/23 08:46:17;;;;;;;5.32;2.95;;;11.20;99.90;;;;;;4857911;29;20060;-74
2022/12/23 08:48:43;;;;;;;;;;;12.20;99.90;;;;;;4844441;29;20434;-73
2022/12/23 08:51:12;;;;;;;6.13;3.08;;;12.00;99.90;;;;;;4861001;29;20043;-73
2022/12/23 08:53:39;;;;;;;5.63;2.80;;;11.40;99.90;;;;;;4860998;29;20114;-73
2022/12/23 08:56:11;;;;;;;4.82;2.90;;;12.40;99.90;;;;;;4860580;29;20046;-73
2022/12/23 08:58:42;;;;;;;6.32;3.50;;;11.60;99.90;;;;;;4860857;29;20052;-73
2022/12/23 09:01:11;;;;;;;7.47;4.63;;;12.50;99.90;;;;;;4860546;29;20060;-73
2022/12/23 09:03:37;;;;;;;8.32;4.85;;;12.20;99.90;;;;;;4860914;29;20526;-73
2022/12/23 09:06:09;;;;;;;7.65;4.50;;;12.20;99.90;;;;;;4861014;29;20101;-74
2022/12/23 09:08:35;;;;;;;8.15;4.82;;;12.20;99.90;;;;;;4862015;29;20054;-74
2022/12/23 09:11:02;;;;;;;8.80;4.50;;;11.60;99.90;;;;;;4845395;29;20045;-74
2022/12/23 09:13:27;;;;;;;8.52;4.57;;;11.80;99.90;;;;;;4860981;29;20080;-73
2022/12/23 09:15:53;;;;;;;7.32;4.20;;;12.30;99.90;;;;;;4860771;29;20880;-74
2022/12/23 09:18:19;;;;;;;7.47;4.45;;;11.90;99.90;;;;;;4845260;29;20057;-74
2022/12/23 09:20:46;;;;;;;7.28;4.00;;;12.30;99.90;;;;;;4845116;29;20081;-74
2022/12/23 09:23:12;;;;;;;7.88;4.68;;;12.30;99.90;;;;;;4861041;29;20067;-74
2022/12/23 09:25:37;;;;;;;7.85;4.78;;;12.50;99.90;;;;;;4860794;29;20573;-74
2022/12/23 09:28:05;;;;;;;6.47;3.90;;;12.60;99.90;;;;;;4844813;29;20128;-73
2022/12/23 09:30:31;;;;;;;6.72;4.43;;;12.40;99.90;;;;;;4844493;29;20109;-74
2022/12/23 09:32:57;;;;;;;6.18;3.55;;;12.40;99.90;;;;;;4860239;29;20038;-74
2022/12/23 09:35:22;;;;;;;5.07;3.35;;;12.00;99.90;;;;;;4860518;29;20105;-75
2022/12/23 09:37:48;;;;;;;6.90;4.40;;;12.40;99.90;;;;;;4860258;29;20125;-73
2022/12/23 09:40:17;;;;;;;6.90;4.15;;;12.10;99.90;;;;;;4844792;29;20067;-73
2022/12/23 09:43:20;;;;;;;5.25;3.28;;;12.20;99.90;;;;;;4845394;29;20454;-74
2022/12/23 09:46:07;;;;;;;4.75;3.00;;;12.70;99.90;;;;;;4859864;29;20060;-74
2022/12/23 09:48:40;;;;;;;4.85;2.97;;;12.30;99.90;;;;;;4859966;29;20506;-74
2022/12/23 09:51:08;;;;;;;5.50;3.40;;;12.20;99.90;;;;;;4859705;29;20050;-74
2022/12/23 09:53:49;;;;;;;5.88;3.58;;;12.70;99.90;;;;;;4844481;29;20054;-74
2022/12/23 09:56:23;;;;;;;5.78;3.80;;;12.60;99.90;;;;;;4859774;29;20406;-74
2022/12/23 09:58:52;;;;;;;7.57;4.57;;;12.90;99.90;;;;;;4844392;29;20049;-73
2022/12/23 10:01:23;;;;;;;6.78;4.45;;;13.00;99.90;;;;;;4859781;29;20503;-74
2022/12/23 10:04:22;;;;;;;7.78;4.55;;;12.40;99.90;;;;;;4859710;29;20112;-74
2022/12/23 10:07:02;;;;;;;7.03;4.50;;;12.40;99.90;;;;;;4844423;29;20041;-74
2022/12/23 10:09:35;;;;;;;7.22;4.57;;;12.40;99.90;;;;;;4859688;29;20053;-74
2022/12/23 10:12:15;;;;;;;6.70;4.20;;;12.50;99.90;;;;;;4859743;29;20459;-74
2022/12/23 10:14:42;;;;;;;6.15;4.10;;;12.60;99.90;;;;;;4859228;29;20508;-74
2022/12/23 10:17:16;;;;;;;7.10;4.65;;;13.00;99.90;;;;;;4859890;29;20053;-75
2022/12/23 10:19:47;;;;;;;7.10;4.55;;;12.50;99.90;;;;;;4860826;29;20048;-76
2022/12/23 10:22:23;;;;;;;5.90;3.97;;;12.80;99.90;;;;;;4859341;29;20439;-74
2022/12/23 10:24:50;;;;;;;6.20;3.90;;;13.00;99.90;;;;;;4859090;29;20057;-74
2022/12/23 10:27:37;;;;;;;;;;;13.10;99.90;;;;;;4844332;29;20397;-73
2022/12/23 10:30:09;;;;;;;4.43;3.13;;;13.00;99.90;;;;;;4843858;29;20269;-73
2022/12/23 10:33:05;;;;;;;3.47;2.45;;;12.70;99.90;;;;;;4859307;29;20041;-73
2022/12/23 10:35:47;;;;;;;3.67;2.60;;;12.90;99.90;;;;;;4859565;29;20057;-74
2022/12/23 10:38:31;;;;;;;6.28;3.65;;;13.10;99.90;;;;;;4858822;29;20075;-75
2022/12/23 10:41:31;;;;;;;5.78;3.40;;;12.70;99.90;;;;;;4858943;29;20084;-74
2022/12/23 10:44:31;;;;;;;5.25;3.90;;;12.70;99.90;;;;;;4843823;29;20136;-74
2022/12/23 10:47:18;;;;;;;4.80;3.08;;;12.70;99.90;;;;;;4859122;29;20058;-73
2022/12/23 10:49:59;;;;;;;3.80;2.53;;;12.80;99.90;;;;;;4843688;29;20049;-74
2022/12/23 10:52:27;;;;;;;4.28;2.40;;;12.70;99.90;;;;;;4844019;29;20140;-74
2022/12/23 10:54:53;;;;;;;3.97;2.80;;;13.00;99.90;;;;;;4843602;29;20042;-74
2022/12/23 10:57:19;;;;;;;4.90;3.33;;;12.70;99.90;;;;;;4859102;29;20052;-74
2022/12/23 10:59:45;;;;;;;5.68;3.97;;;12.90;99.90;;;;;;4858507;29;20352;-74
2022/12/23 11:02:11;;;;;;;4.70;3.28;;;12.60;99.90;;;;;;4828204;29;20197;-74
2022/12/23 11:04:46;;;;;;;3.70;2.60;;;12.80;99.90;;;;;;4858965;29;20053;-74
2022/12/23 11:07:20;;;;;;;4.20;2.90;;;13.00;99.90;;;;;;4858803;29;20509;-74
2022/12/23 11:09:56;;;;;;;3.60;2.50;;;13.00;99.90;;;;;;4859020;29;20053;-74
2022/12/23 11:12:23;;;;;;;6.15;4.10;;;13.20;99.90;;;;;;4843175;29;20401;-74
2022/12/23 11:14:57;;;;;;;5.53;4.10;;;12.60;99.90;;;;;;4858643;29;20131;-74
2022/12/23 11:17:24;;;;;;;6.13;4.32;;;12.70;99.90;;;;;;4843352;29;20057;-75
2022/12/23 11:20:16;;;;;;;6.53;4.75;;;12.40;99.90;;;;;;4858656;29;20079;-75
2022/12/23 11:22:50;;;;;;;5.15;4.07;;;12.80;99.90;;;;;;4861009;29;20069;-75
2022/12/23 11:25:41;;;;;;;4.85;3.50;;;12.30;99.90;;;;;;4876700;29;20401;-74
2022/12/23 11:28:15;;;;;;;4.57;3.30;;;13.20;99.90;;;;;;4877006;29;20079;-75
2022/12/23 11:30:57;;;;;;;4.55;3.30;;;12.80;99.90;;;;;;4878040;29;20124;-74
2022/12/23 11:33:36;;;;;;;5.25;3.90;;;12.50;99.90;;;;;;4861532;29;20096;-74
2022/12/23 11:36:05;;;;;;;4.90;3.28;;;13.00;99.90;;;;;;4875928;29;20141;-70
2022/12/23 11:38:31;;;;;;;3.95;2.80;;;12.70;99.90;;;;;;4875871;29;20531;-70
2022/12/23 11:40:57;;;;;;;4.53;3.25;;;12.40;99.90;;;;;;4844962;29;20060;-71
2022/12/23 11:43:25;;;;;;;5.43;4.07;;;13.10;99.90;;;;;;4875863;29;20053;-70
2022/12/23 11:46:23;;;;;;;6.25;4.50;;;12.80;99.90;;;;;;4875795;29;20109;-70
2022/12/23 11:49:21;;;;;;;8.32;5.55;;;12.50;99.90;;;;;;4875628;29;20044;-70
2022/12/23 11:52:12;;;;;;;8.40;5.45;;;12.30;99.90;;;;;;4875817;29;20489;-70
2022/12/23 11:54:38;;;;;;;8.55;5.15;;;12.40;99.90;;;;;;4875679;29;20136;-71
2022/12/23 11:57:13;;;;;;;5.28;3.63;;;12.40;99.90;;;;;;4875548;29;20045;-71
2022/12/23 11:59:43;;;;;;;7.20;4.78;;;12.70;99.90;;;;;;4875849;29;20128;-70
2022/12/23 12:02:34;;;;;;;6.47;4.25;;;13.00;99.90;;;;;;4859968;29;20145;-71
2022/12/23 12:05:15;;;;;;;6.55;4.25;;;13.10;99.90;;;;;;4875348;29;20053;-70
2022/12/23 12:07:43;;;;;;;6.30;4.10;;;12.50;99.90;;;;;;4875491;29;20557;-70
2022/12/23 12:10:17;;;;;;;7.45;5.03;;;12.60;99.90;;;;;;4859805;29;20064;-71
2022/12/23 12:12:43;;;;;;;7.07;4.32;;;13.10;99.90;;;;;;4875511;29;20053;-71
2022/12/23 12:15:25;;;;;;;6.53;4.25;;;13.10;99.90;;;;;;4860105;29;20059;-71
2022/12/23 12:17:53;;;;;;;6.85;4.32;;;13.20;99.90;;;;;;4875763;29;20052;-70
2022/12/23 12:20:27;;;;;;;7.35;4.70;;;13.00;99.90;;;;;;4858856;29;20401;-70
2022/12/23 12:23:05;;;;;;;6.47;4.50;;;12.60;99.90;;;;;;4844171;29;20344;-69
2022/12/23 12:25:43;;;;;;;5.72;4.10;;;12.50;99.90;;;;;;4854236;29;20052;-69
2022/12/23 12:28:16;;;;;;;5.68;3.35;;;12.50;99.90;;;;;;4856904;29;20056;-70
2022/12/23 12:30:52;;;;;;;4.45;2.88;;;13.10;99.90;;;;;;4859049;29;20132;-70
2022/12/23 12:33:25;;;;;;;4.03;2.60;;;12.60;99.90;;;;;;4859896;29;20052;-70
2022/12/23 12:36:00;;;;;;;4.00;2.67;;;12.70;99.90;;;;;;4844465;29;20060;-70
2022/12/23 12:38:31;;;;;;;3.25;2.28;;;12.70;99.90;;;;;;4859412;29;20061;-71
2022/12/23 12:41:09;;;;;;;5.15;3.10;;;13.00;99.90;;;;;;4851785;29;20418;-70
2022/12/23 12:43:52;;;;;;;3.60;2.78;;;13.10;99.90;;;;;;4855478;29;20132;-69
2022/12/23 12:46:49;;;;;;;4.22;2.70;;;12.60;99.90;;;;;;4849121;29;20038;-70
2022/12/23 12:49:34;;;;;;;4.55;3.13;;;12.60;99.90;;;;;;4858839;29;20091;-69
2022/12/23 12:52:18;;;;;;;5.45;3.83;;;12.60;99.90;;;;;;4833303;29;20114;-69
2022/12/23 12:54:53;;;;;;;6.80;4.57;;;12.60;99.90;;;;;;4851031;29;20069;-72
2022/12/23 12:57:21;;;;;;;6.97;4.75;;;12.70;99.90;;;;;;4856971;29;20124;-70
2022/12/23 12:59:52;;;;;;;6.35;4.28;;;13.30;99.90;;;;;;4844499;29;20048;-70
2022/12/23 13:02:21;;;;;;;8.77;5.43;;;12.50;99.90;;;;;;4860413;29;20049;-70
2022/12/23 13:05:24;;;;;;;7.28;4.57;;;13.00;99.90;;;;;;4860191;29;20113;-70
2022/12/23 13:08:20;;;;;;;6.97;4.40;;;13.00;99.90;;;;;;4844716;29;20645;-70
2022/12/23 13:11:09;;;;;;;5.43;3.80;;;12.70;99.90;;;;;;4859352;29;20057;-70
2022/12/23 13:13:48;;;;;;;8.50;5.53;;;12.60;99.90;;;;;;4859165;29;20049;-73
2022/12/23 13:16:39;;;;;;;7.20;4.30;;;12.60;99.90;;;;;;4858065;29;20106;-73
2022/12/23 13:19:12;;;;;;;11.38;6.68;;;12.60;99.90;;;;;;4858439;29;20037;-73
2022/12/23 13:22:12;;;;;;;9.70;5.57;;;13.10;99.90;;;;;;4856286;29;20049;-73
2022/12/23 13:24:56;;;;;;;6.50;4.32;;;12.80;99.90;;;;;;4843486;29;20092;-70
2022/12/23 13:27:49;;;;;;;6.47;4.30;;;12.80;99.90;;;;;;4830867;29;20049;-73
2022/12/23 13:30:18;;;;;;;9.73;6.45;;;13.20;99.90;;;;;;4825870;29;20061;-73